createdAt,value
2019-03-09T00:01:44.932Z,98134.63
2019-03-09T00:04:18.567Z,98133.83
2019-03-09T00:06:52.826Z,98127.45
2019-03-09T00:09:24.365Z,98135.34
2019-03-09T00:11:59.840Z,98140.34
2019-03-09T00:14:31.430Z,98142.21
2019-03-09T00:17:05.428Z,98148.25
2019-03-09T00:19:39.181Z,98155.66
2019-03-09T00:22:11.717Z,98156.34
2019-03-09T00:24:47.040Z,98150.99
2019-03-09T00:27:29.447Z,98154.59
2019-03-09T00:30:07.551Z,98142.62
2019-03-09T00:32:39.103Z,98147.21
2019-03-09T00:35:10.497Z,98155.03
2019-03-09T00:37:40.408Z,98154.75
2019-03-09T00:40:12.627Z,98155.00
2019-03-09T00:42:49.948Z,98152.47
2019-03-09T00:45:23.456Z,98147.09
2019-03-09T00:47:54.915Z,98157.22
2019-03-09T00:50:26.248Z,98160.82
2019-03-09T00:53:00.321Z,98168.93
2019-03-09T00:55:32.190Z,98162.98
2019-03-09T00:58:09.059Z,98162.94
2019-03-09T01:00:41.119Z,98165.55
2019-03-09T01:03:12.128Z,98171.87
2019-03-09T01:05:43.270Z,98171.59
2019-03-09T01:08:21.123Z,98167.81
2019-03-09T01:10:52.108Z,98164.13
2019-03-09T01:13:27.273Z,98162.25
2019-03-09T01:16:05.525Z,98162.58
2019-03-09T01:18:39.957Z,98157.09
2019-03-09T01:21:13.216Z,98158.09
2019-03-09T01:23:49.328Z,98159.22
2019-03-09T01:26:20.932Z,98077.69
2019-03-09T01:29:01.451Z,98155.95
2019-03-09T01:31:37.389Z,98144.53
2019-03-09T01:34:09.863Z,98157.08
2019-03-09T01:36:44.115Z,98156.16
2019-03-09T01:39:18.045Z,98154.70
2019-03-09T01:41:51.376Z,98145.90
2019-03-09T01:44:23.234Z,98145.19
2019-03-09T01:46:55.026Z,98137.02
2019-03-09T01:49:27.470Z,98141.30
2019-03-09T01:51:59.319Z,98135.29
2019-03-09T01:54:30.452Z,98144.97
2019-03-09T01:57:04.411Z,98147.06
2019-03-09T01:59:37.286Z,98138.51
2019-03-09T02:02:10.570Z,98134.88
2019-03-09T02:04:44.823Z,98135.09
2019-03-09T02:07:19.851Z,98130.46
2019-03-09T02:09:55.046Z,98127.52
2019-03-09T02:12:27.039Z,98127.14
2019-03-09T02:15:06.849Z,98133.62
2019-03-09T02:17:40.460Z,98129.45
2019-03-09T02:20:20.119Z,98132.52
2019-03-09T02:22:52.084Z,98118.41
2019-03-09T02:25:25.404Z,98118.41
2019-03-09T02:27:57.159Z,98112.23
2019-03-09T02:30:28.918Z,98105.08
2019-03-09T02:33:01.968Z,98108.70
2019-03-09T02:35:33.054Z,98105.27
2019-03-09T02:38:06.941Z,98105.27
2019-03-09T02:40:38.901Z,98119.31
2019-03-09T02:43:16.122Z,98122.28
2019-03-09T02:45:53.560Z,98132.95
2019-03-09T02:48:29.184Z,98140.93
2019-03-09T02:51:04.331Z,98149.20
2019-03-09T02:53:37.760Z,98147.91
2019-03-09T02:56:09.307Z,98159.55
2019-03-09T02:58:47.239Z,98150.06
2019-03-09T03:01:23.041Z,98157.44
2019-03-09T03:03:55.136Z,98161.38
2019-03-09T03:06:28.426Z,98162.70
2019-03-09T03:08:59.091Z,98159.73
2019-03-09T03:11:30.470Z,98155.33
2019-03-09T03:14:01.966Z,98154.42
2019-03-09T03:16:32.042Z,98148.65
2019-03-09T03:19:03.567Z,98156.45
2019-03-09T03:21:35.333Z,98151.89
2019-03-09T03:24:11.194Z,98154.59
2019-03-09T03:26:44.213Z,98143.43
2019-03-09T03:29:16.114Z,98141.91
2019-03-09T03:31:47.906Z,98145.09
2019-03-09T03:34:21.383Z,98148.97
2019-03-09T03:36:51.980Z,98145.11
2019-03-09T03:39:22.152Z,98143.69
2019-03-09T03:41:52.603Z,98143.55
2019-03-09T03:44:25.002Z,98145.53
2019-03-09T03:47:00.656Z,98141.98
2019-03-09T03:49:31.425Z,98132.09
2019-03-09T03:52:01.685Z,98136.38
2019-03-09T03:54:32.365Z,98131.14
2019-03-09T03:57:03.513Z,98137.75
2019-03-09T03:59:34.056Z,98138.45
2019-03-09T04:02:05.119Z,98146.55
2019-03-09T04:04:39.151Z,98154.91
2019-03-09T04:07:10.060Z,98162.16
2019-03-09T04:09:42.155Z,98169.93
2019-03-09T04:12:13.569Z,98172.02
2019-03-09T04:14:46.941Z,98180.48
2019-03-09T04:17:18.819Z,98182.24
2019-03-09T04:19:54.327Z,98177.28
2019-03-09T04:22:26.289Z,98186.14
2019-03-09T04:24:57.848Z,98186.14
2019-03-09T04:27:27.675Z,98185.53
2019-03-09T04:29:59.491Z,98183.79
2019-03-09T04:32:31.180Z,98181.44
2019-03-09T04:35:02.741Z,98177.45
2019-03-09T04:37:33.977Z,98178.69
2019-03-09T04:40:06.344Z,98177.81
2019-03-09T04:42:36.834Z,98169.98
2019-03-09T04:45:11.758Z,98179.40
2019-03-09T04:47:42.548Z,98179.40
2019-03-09T04:50:16.428Z,98170.91
2019-03-09T04:52:47.808Z,98171.86
2019-03-09T04:55:18.906Z,98166.99
2019-03-09T04:57:49.809Z,98166.99
2019-03-09T05:00:23.650Z,98161.14
2019-03-09T05:02:56.681Z,98161.19
2019-03-09T05:05:28.864Z,98162.88
2019-03-09T05:08:02.245Z,98167.77
2019-03-09T05:10:35.984Z,98167.77
2019-03-09T05:13:12.718Z,98170.47
2019-03-09T05:15:44.302Z,98170.47
2019-03-09T05:18:15.535Z,98177.64
2019-03-09T05:20:46.385Z,98177.64
2019-03-09T05:23:21.459Z,98185.16
2019-03-09T05:25:52.797Z,98180.81
2019-03-09T05:28:25.185Z,98184.06
2019-03-09T05:30:56.234Z,98184.06
2019-03-09T05:33:27.992Z,98174.38
2019-03-09T05:36:00.734Z,98187.56
2019-03-09T05:38:31.891Z,98189.88
2019-03-09T05:41:02.430Z,98189.88
2019-03-09T05:43:35.347Z,98203.54
2019-03-09T05:46:07.127Z,98204.03
2019-03-09T05:48:38.180Z,98204.03
2019-03-09T05:51:08.951Z,98197.71
2019-03-09T05:53:40.390Z,98202.66
2019-03-09T05:56:11.447Z,98204.13
2019-03-09T05:58:43.277Z,98196.45
2019-03-09T06:01:15.225Z,98196.45
2019-03-09T06:03:45.651Z,98208.62
2019-03-09T06:06:18.664Z,98207.66
2019-03-09T06:08:49.425Z,98215.81
2019-03-09T06:11:19.325Z,98214.70
2019-03-09T06:13:49.785Z,98222.52
2019-03-09T06:16:19.802Z,98224.84
2019-03-09T06:18:50.926Z,98229.19
2019-03-09T06:21:22.411Z,98228.51
2019-03-09T06:23:53.263Z,98223.19
2019-03-09T06:26:24.131Z,98221.78
2019-03-09T06:28:54.957Z,98225.05
2019-03-09T06:31:25.253Z,98229.00
2019-03-09T06:33:55.613Z,98231.05
2019-03-09T06:36:28.630Z,98237.91
2019-03-09T06:39:01.413Z,98239.62
2019-03-09T06:41:42.034Z,98237.40
2019-03-09T06:44:12.777Z,98243.73
2019-03-09T06:46:42.891Z,98250.35
2019-03-09T06:49:14.316Z,98256.39
2019-03-09T06:51:45.228Z,98258.56
2019-03-09T06:54:16.135Z,98258.97
2019-03-09T06:56:46.545Z,98252.31
2019-03-09T06:59:18.558Z,98262.18
2019-03-09T07:01:50.925Z,98265.76
2019-03-09T07:04:21.103Z,98257.28
2019-03-09T07:06:50.999Z,98267.16
2019-03-09T07:09:21.163Z,98268.13
2019-03-09T07:11:52.442Z,98263.31
2019-03-09T07:14:54.764Z,98267.44
2019-03-09T07:17:25.651Z,98273.24
2019-03-09T07:19:56.118Z,98271.17
2019-03-09T07:22:29.796Z,98273.70
2019-03-09T07:24:59.737Z,98274.27
2019-03-09T07:27:32.921Z,98276.65
2019-03-09T07:30:03.891Z,98274.71
2019-03-09T07:32:34.714Z,98276.18
2019-03-09T07:35:06.288Z,98282.82
2019-03-09T07:37:37.094Z,98288.13
2019-03-09T07:40:10.295Z,98280.14
2019-03-09T07:42:40.925Z,98278.48
2019-03-09T07:45:14.185Z,98282.88
2019-03-09T07:47:44.693Z,98292.81
2019-03-09T07:50:17.641Z,98290.20
2019-03-09T07:52:48.048Z,98296.88
2019-03-09T07:55:19.711Z,98293.67
2019-03-09T07:57:50.156Z,98295.64
2019-03-09T08:00:23.438Z,98284.19
2019-03-09T08:02:54.796Z,98289.78
2019-03-09T08:05:26.319Z,98281.20
2019-03-09T08:07:56.812Z,98281.34
2019-03-09T08:10:29.654Z,98281.66
2019-03-09T08:13:00.123Z,98287.84
2019-03-09T08:15:30.277Z,98287.92
2019-03-09T08:18:02.175Z,98295.64
2019-03-09T08:20:32.748Z,98294.41
2019-03-09T08:23:03.375Z,98293.17
2019-03-09T08:25:33.450Z,98303.63
2019-03-09T08:28:03.910Z,98298.63
2019-03-09T08:30:34.703Z,98306.36
2019-03-09T08:33:05.602Z,98305.48
2019-03-09T08:35:36.193Z,98305.74
2019-03-09T08:38:06.647Z,98305.08
2019-03-09T08:40:37.019Z,98300.51
2019-03-09T08:43:07.802Z,98303.67
2019-03-09T08:45:38.443Z,98313.86
2019-03-09T08:48:09.502Z,98307.45
2019-03-09T08:50:39.671Z,98315.80
2019-03-09T08:53:09.709Z,98323.38
2019-03-09T08:55:40.750Z,98312.28
2019-03-09T08:58:10.924Z,98319.05
2019-03-09T09:00:41.997Z,98314.95
2019-03-09T09:03:11.964Z,98320.78
2019-03-09T09:05:42.337Z,98314.83
2019-03-09T09:08:12.578Z,98322.81
2019-03-09T09:10:42.751Z,98328.33
2019-03-09T09:13:13.006Z,98317.70
2019-03-09T09:15:43.014Z,98318.59
2019-03-09T09:18:14.374Z,98319.38
2019-03-09T09:20:44.378Z,98328.67
2019-03-09T09:23:14.718Z,98326.56
2019-03-09T09:25:44.870Z,98332.02
2019-03-09T09:28:14.758Z,98330.14
2019-03-09T09:30:45.586Z,98329.53
2019-03-09T09:33:15.456Z,98330.09
2019-03-09T09:35:45.587Z,98333.33
2019-03-09T09:38:15.769Z,98330.05
2019-03-09T09:40:46.056Z,98330.14
2019-03-09T09:43:16.415Z,98331.87
2019-03-09T09:45:46.681Z,98340.55
2019-03-09T09:48:17.365Z,98338.63
2019-03-09T09:50:47.699Z,98341.11
2019-03-09T09:53:18.192Z,98344.66
2019-03-09T09:55:48.569Z,98346.19
2019-03-09T09:58:18.580Z,98340.34
2019-03-09T10:00:48.700Z,98335.56
2019-03-09T10:03:18.922Z,98335.09
2019-03-09T10:05:49.149Z,98347.38
2019-03-09T10:08:19.807Z,98345.16
2019-03-09T10:10:49.887Z,98339.92
2019-03-09T10:13:20.823Z,98344.23
2019-03-09T10:16:10.287Z,98346.61
2019-03-09T10:19:01.017Z,98332.72
2019-03-09T10:22:01.488Z,98337.59
2019-03-09T10:24:43.321Z,98340.05
2019-03-09T10:27:24.041Z,98351.17
2019-03-09T10:29:54.916Z,98348.45
2019-03-09T10:32:25.288Z,98348.59
2019-03-09T10:34:55.141Z,98351.48
2019-03-09T10:37:25.249Z,98341.70
2019-03-09T10:39:55.753Z,98338.80
2019-03-09T10:42:26.482Z,98342.44
2019-03-09T10:44:57.027Z,98341.39
2019-03-09T10:47:28.458Z,98341.66
2019-03-09T10:50:00.567Z,98342.16
2019-03-09T10:52:31.199Z,98339.30
2019-03-09T10:55:01.936Z,98344.17
2019-03-09T10:57:33.536Z,98333.06
2019-03-09T11:00:09.657Z,98338.64
2019-03-09T11:02:42.652Z,98336.77
2019-03-09T11:05:13.577Z,98336.03
2019-03-09T11:07:44.686Z,98324.36
2019-03-09T11:10:16.535Z,98325.80
2019-03-09T11:12:47.924Z,98331.16
2019-03-09T11:15:19.616Z,98331.35
2019-03-09T11:17:50.559Z,98336.14
2019-03-09T11:20:22.444Z,98330.61
2019-03-09T11:22:53.589Z,98330.86
2019-03-09T11:25:23.857Z,98326.39
2019-03-09T11:27:54.303Z,98316.31
2019-03-09T11:30:28.296Z,98307.34
2019-03-09T11:32:59.579Z,98303.69
2019-03-09T11:35:32.791Z,98305.66
2019-03-09T11:38:03.483Z,98309.66
2019-03-09T11:40:35.051Z,98296.88
2019-03-09T11:43:06.654Z,98294.42
2019-03-09T11:45:37.734Z,98294.25
2019-03-09T11:48:08.567Z,98286.17
2019-03-09T11:50:39.551Z,98291.25
2019-03-09T11:53:10.416Z,98272.94
2019-03-09T11:55:41.480Z,98270.71
2019-03-09T11:58:12.112Z,98273.44
2019-03-09T12:00:43.590Z,98269.98
2019-03-09T12:03:14.221Z,98260.05
2019-03-09T12:05:44.483Z,98263.50
2019-03-09T12:08:15.293Z,98245.56
2019-03-09T12:10:45.568Z,98248.72
2019-03-09T12:13:15.693Z,98245.16
2019-03-09T12:15:45.946Z,98250.09
2019-03-09T12:18:16.416Z,98250.23
2019-03-09T12:20:48.091Z,98239.02
2019-03-09T12:23:23.669Z,98237.91
2019-03-09T12:25:53.809Z,98242.94
2019-03-09T12:28:25.322Z,98228.27
2019-03-09T12:30:57.499Z,98232.37
2019-03-09T12:33:28.979Z,98226.38
2019-03-09T12:36:00.012Z,98225.42
2019-03-09T12:38:30.464Z,98230.75
2019-03-09T12:41:01.606Z,98233.89
2019-03-09T12:43:31.727Z,98218.92
2019-03-09T12:46:01.810Z,98220.53
2019-03-09T12:48:34.050Z,98213.45
2019-03-09T12:51:04.534Z,98198.89
2019-03-09T12:53:34.878Z,98199.92
2019-03-09T12:56:04.881Z,98202.47
2019-03-09T12:58:36.200Z,98203.25
2019-03-09T13:01:07.304Z,98203.80
2019-03-09T13:03:38.620Z,98198.83
2019-03-09T13:06:09.560Z,98190.38
2019-03-09T13:08:40.388Z,98190.45
2019-03-09T13:11:10.806Z,98181.69
2019-03-09T13:13:41.347Z,98189.73
2019-03-09T13:16:11.398Z,98196.43
2019-03-09T13:18:42.109Z,98196.50
2019-03-09T13:21:13.538Z,98186.27
2019-03-09T13:23:44.297Z,98179.12
2019-03-09T13:26:14.853Z,98176.89
2019-03-09T13:28:45.174Z,98173.36
2019-03-09T13:31:15.264Z,98171.11
2019-03-09T13:33:45.630Z,98165.13
2019-03-09T13:36:16.488Z,98155.00
2019-03-09T13:38:47.142Z,98157.88
2019-03-09T13:41:17.684Z,98160.66
2019-03-09T13:43:48.085Z,98164.63
2019-03-09T13:46:19.302Z,98154.77
2019-03-09T13:48:49.735Z,98158.68
2019-03-09T13:51:20.029Z,98158.22
2019-03-09T13:53:50.496Z,98154.85
2019-03-09T13:56:21.510Z,98151.36
2019-03-09T13:58:52.230Z,98147.11
2019-03-09T14:01:23.040Z,98145.67
2019-03-09T14:03:53.556Z,98146.10
2019-03-09T14:06:24.154Z,98144.60
2019-03-09T14:08:54.270Z,98140.95
2019-03-09T14:11:26.024Z,98134.16
2019-03-09T14:13:56.602Z,98151.84
2019-03-09T14:16:26.795Z,98147.12
2019-03-09T14:18:57.866Z,98141.86
2019-03-09T14:21:38.355Z,98135.19
2019-03-09T14:24:19.259Z,98139.39
2019-03-09T14:26:57.543Z,98146.61
2019-03-09T14:29:46.743Z,98142.19
2019-03-09T14:32:23.083Z,98138.39
2019-03-09T14:35:07.185Z,98138.33
2019-03-09T14:37:47.755Z,98127.45
2019-03-09T14:40:18.367Z,98134.55
2019-03-09T14:43:00.799Z,98138.36
2019-03-09T14:45:41.506Z,98128.02
2019-03-09T14:48:23.990Z,98132.91
2019-03-09T14:51:04.995Z,98132.59
2019-03-09T14:53:52.906Z,98132.23
2019-03-09T14:56:24.614Z,98139.03
2019-03-09T14:59:04.690Z,98148.24
2019-03-09T15:01:48.970Z,98139.52
2019-03-09T15:04:35.094Z,98135.45
2019-03-09T15:07:09.624Z,98128.64
2019-03-09T15:09:53.222Z,98125.34
2019-03-09T15:12:35.081Z,98128.31
2019-03-09T15:15:24.562Z,98129.98
2019-03-09T15:18:03.876Z,98120.45
2019-03-09T15:20:52.713Z,98122.91
2019-03-09T15:23:39.157Z,98110.58
2019-03-09T15:26:24.619Z,98105.35
2019-03-09T15:29:08.597Z,98099.84
2019-03-09T15:31:54.840Z,98109.00
2019-03-09T15:34:39.307Z,98115.77
2019-03-09T15:37:13.399Z,98108.98
2019-03-09T15:39:49.245Z,98103.75
2019-03-09T15:42:37.559Z,98110.02
2019-03-09T15:45:17.836Z,98103.22
2019-03-09T15:47:58.945Z,98106.14
2019-03-09T15:50:43.155Z,98112.75
2019-03-09T15:53:26.889Z,98113.55
2019-03-09T15:56:06.710Z,98105.84
2019-03-09T15:58:54.063Z,98115.02
2019-03-09T16:01:35.915Z,98107.89
2019-03-09T16:04:08.991Z,98107.59
2019-03-09T16:06:43.714Z,98113.09
2019-03-09T16:09:15.424Z,98114.06
2019-03-09T16:11:46.270Z,98113.07
2019-03-09T16:14:16.347Z,98117.34
2019-03-09T16:16:47.802Z,98120.33
2019-03-09T16:19:20.351Z,98118.92
2019-03-09T16:21:51.836Z,98115.02
2019-03-09T16:24:26.694Z,98117.94
2019-03-09T16:26:59.135Z,98112.56
2019-03-09T16:29:30.434Z,98116.59
2019-03-09T16:32:01.174Z,98117.00
2019-03-09T16:34:32.582Z,98125.23
2019-03-09T16:37:02.913Z,98122.73
2019-03-09T16:39:34.866Z,98126.61
2019-03-09T16:42:05.595Z,98126.67
2019-03-09T16:44:36.118Z,98131.12
2019-03-09T16:47:06.189Z,98134.36
2019-03-09T16:49:37.515Z,98138.45
2019-03-09T16:52:08.062Z,98146.44
2019-03-09T16:54:38.393Z,98135.72
2019-03-09T16:57:09.095Z,98143.01
2019-03-09T16:59:39.508Z,98144.86
2019-03-09T17:02:10.087Z,98147.44
2019-03-09T17:04:41.681Z,98146.27
2019-03-09T17:07:11.998Z,98144.11
2019-03-09T17:09:42.736Z,98144.50
2019-03-09T17:12:13.537Z,98150.88
2019-03-09T17:14:44.070Z,98151.95
2019-03-09T17:17:14.474Z,98155.33
2019-03-09T17:19:45.088Z,98149.98
2019-03-09T17:22:17.990Z,98149.84
2019-03-09T17:24:49.509Z,98145.03
2019-03-09T17:27:19.638Z,98141.30
2019-03-09T17:29:49.843Z,98151.05
2019-03-09T17:32:25.765Z,98147.21
2019-03-09T17:34:52.289Z,98140.31
2019-03-09T17:37:23.513Z,98149.02
2019-03-09T17:39:55.836Z,98160.88
2019-03-09T17:42:28.028Z,98158.59
2019-03-09T17:44:58.905Z,98161.44
2019-03-09T17:47:30.347Z,98171.02
2019-03-09T17:50:05.638Z,98171.61
2019-03-09T17:52:37.372Z,98175.48
2019-03-09T17:55:11.923Z,98181.75
2019-03-09T17:57:48.563Z,98190.02
2019-03-09T18:00:30.809Z,98186.00
2019-03-09T18:03:06.147Z,98186.56
2019-03-09T18:05:40.630Z,98191.57
2019-03-09T18:08:18.269Z,98189.08
2019-03-09T18:10:57.847Z,98186.66
2019-03-09T18:13:32.881Z,98187.05
2019-03-09T18:16:05.437Z,98188.98
2019-03-09T18:18:36.971Z,98193.90
2019-03-09T18:21:11.798Z,98198.91
2019-03-09T18:23:43.745Z,98197.86
2019-03-09T18:26:17.437Z,98195.67
2019-03-09T18:28:49.339Z,98198.53
2019-03-09T18:31:20.862Z,98204.64
2019-03-09T18:33:56.242Z,98215.06
2019-03-09T18:36:30.294Z,98224.07
2019-03-09T18:39:01.543Z,98230.23
2019-03-09T18:41:34.863Z,98224.33
2019-03-09T18:44:05.668Z,98225.67
2019-03-09T18:46:37.769Z,98229.92
2019-03-09T18:49:08.796Z,98226.61
2019-03-09T18:51:39.896Z,98225.69
2019-03-09T18:54:10.521Z,98222.52
2019-03-09T18:56:41.585Z,98231.52
2019-03-09T18:59:14.136Z,98223.14
2019-03-09T19:01:45.152Z,98222.05
2019-03-09T19:04:16.098Z,98222.64
2019-03-09T19:06:47.810Z,98215.23
2019-03-09T19:09:19.508Z,98222.21
2019-03-09T19:11:50.011Z,98229.95
2019-03-09T19:14:20.411Z,98235.46
2019-03-09T19:16:50.926Z,98231.49
2019-03-09T19:19:22.784Z,98228.92
2019-03-09T19:21:55.477Z,98236.94
2019-03-09T19:24:26.224Z,98248.33
2019-03-09T19:26:57.821Z,98256.28
2019-03-09T19:29:28.546Z,98255.29
2019-03-09T19:32:00.904Z,98256.59
2019-03-09T19:34:31.660Z,98257.47
2019-03-09T19:37:04.110Z,98260.12
2019-03-09T19:39:34.655Z,98263.15
2019-03-09T19:42:05.368Z,98267.95
2019-03-09T19:44:36.409Z,98267.31
2019-03-09T19:47:07.308Z,98264.74
2019-03-09T19:49:38.349Z,98270.00
2019-03-09T19:52:09.669Z,98267.84
2019-03-09T19:54:40.175Z,98270.15
2019-03-09T19:57:11.229Z,98260.77
2019-03-09T19:59:43.753Z,98264.72
2019-03-09T20:02:14.619Z,98269.34
2019-03-09T20:04:45.523Z,98274.12
2019-03-09T20:07:18.289Z,98274.83
2019-03-09T20:09:48.913Z,98288.60
2019-03-09T20:12:20.794Z,98287.42
2019-03-09T20:14:53.063Z,98282.59
2019-03-09T20:21:10.949Z,98284.92
2019-03-09T20:23:46.035Z,98290.87
2019-03-09T20:26:17.611Z,98294.70
2019-03-09T20:28:48.842Z,98296.19
2019-03-09T20:31:19.734Z,98303.39
2019-03-09T20:33:51.082Z,98293.02
2019-03-09T20:36:21.691Z,98291.77
2019-03-09T20:38:54.069Z,98295.27
2019-03-09T20:41:26.907Z,98299.94
2019-03-09T20:43:58.620Z,98296.59
2019-03-09T20:46:42.056Z,98293.33
2019-03-09T20:49:19.321Z,98285.33
2019-03-09T20:52:05.747Z,98284.18
2019-03-09T20:54:54.771Z,98272.75
2019-03-09T20:57:29.066Z,98280.14
2019-03-09T21:00:07.748Z,98268.97
2019-03-09T21:06:33.597Z,98264.27
2019-03-09T21:09:06.814Z,98277.61
2019-03-09T21:11:39.858Z,98283.89
2019-03-09T21:14:11.388Z,98293.41
2019-03-09T21:16:43.707Z,98288.59
2019-03-09T21:19:15.703Z,98282.34
2019-03-09T21:21:48.119Z,98276.78
2019-03-09T21:24:27.926Z,98281.35
2019-03-09T21:27:00.714Z,98286.32
2019-03-09T21:29:41.991Z,98286.98
2019-03-09T21:32:19.100Z,98283.97
2019-03-09T21:34:50.210Z,98285.13
2019-03-09T21:37:24.011Z,98288.88
2019-03-09T21:39:56.245Z,98291.05
2019-03-09T21:42:29.360Z,98303.35
2019-03-09T21:45:02.931Z,98299.68
2019-03-09T21:47:34.280Z,98299.17
2019-03-09T21:50:11.418Z,98299.06
2019-03-09T21:52:43.314Z,98296.38
2019-03-09T21:55:22.941Z,98299.50
2019-03-09T21:57:57.390Z,98303.20
2019-03-09T22:00:32.738Z,98300.99
2019-03-09T22:03:12.401Z,98307.33
2019-03-09T22:05:47.729Z,98311.23
2019-03-09T22:08:29.586Z,98315.30
2019-03-09T22:11:04.115Z,98300.98
2019-03-09T22:13:51.384Z,98302.08
2019-03-09T22:16:27.063Z,98298.92
2019-03-09T22:18:58.807Z,98289.66
2019-03-09T22:21:31.455Z,98278.60
2019-03-09T22:24:03.814Z,98275.72
2019-03-09T22:26:35.885Z,98278.84
2019-03-09T22:29:09.790Z,98282.38
2019-03-09T22:31:47.055Z,98286.14
2019-03-09T22:34:25.538Z,98291.78
2019-03-09T22:37:02.060Z,98284.77
2019-03-09T22:39:38.260Z,98283.43
2019-03-09T22:42:12.438Z,98258.25
2019-03-09T22:44:43.891Z,98251.80
2019-03-09T22:47:17.368Z,98256.27
2019-03-09T22:49:49.000Z,98269.55
2019-03-09T22:52:20.330Z,98276.78
2019-03-09T22:54:52.790Z,98278.34
2019-03-09T22:57:23.462Z,98285.35
2019-03-09T22:59:55.822Z,98291.80
2019-03-09T23:02:30.832Z,98302.94
2019-03-09T23:05:01.981Z,98302.83
2019-03-09T23:07:32.742Z,98302.03
2019-03-09T23:10:06.471Z,98293.86
2019-03-09T23:12:37.956Z,98287.63
2019-03-09T23:15:12.629Z,98282.42
2019-03-09T23:17:46.128Z,98277.66
2019-03-09T23:20:24.959Z,98268.78
2019-03-09T23:22:57.278Z,98275.88
2019-03-09T23:25:30.848Z,98269.22
2019-03-09T23:28:04.457Z,98268.37
2019-03-09T23:30:35.871Z,98268.25
2019-03-09T23:33:07.231Z,98280.56
2019-03-09T23:35:38.540Z,98284.64
2019-03-09T23:38:10.096Z,98282.53
2019-03-09T23:40:42.138Z,98282.53
2019-03-09T23:43:13.194Z,98279.08
2019-03-09T23:45:46.594Z,98265.47
2019-03-09T23:48:19.311Z,98275.55
2019-03-09T23:50:51.574Z,98278.82
2019-03-09T23:53:23.717Z,98277.44
2019-03-09T23:55:58.757Z,98275.70
2019-03-09T23:58:30.578Z,98262.96
